createdAt,value
2023-05-24T00:02:03.912Z,98647.64
2023-05-24T00:05:01.127Z,98645.91
2023-05-24T00:07:52.862Z,98642.25
2023-05-24T00:10:45.693Z,98646.71
2023-05-24T00:13:38.789Z,98646.41
2023-05-24T00:16:31.788Z,98649.65
2023-05-24T00:19:24.979Z,98651.61
2023-05-24T00:22:17.536Z,98652.73
2023-05-24T00:25:11.981Z,98655.84
2023-05-24T00:28:04.851Z,98656.86
2023-05-24T00:30:57.640Z,98655.76
2023-05-24T00:33:50.249Z,98655.34
2023-05-24T00:36:43.804Z,98657.25
2023-05-24T00:39:27.519Z,98657.55
2023-05-24T00:42:20.667Z,98657.36
2023-05-24T00:45:13.795Z,98660.70
2023-05-24T00:48:07.132Z,98659.28
2023-05-24T00:51:00.272Z,98656.23
2023-05-24T00:53:53.357Z,98661.80
2023-05-24T00:56:46.422Z,98657.61
2023-05-24T00:59:40.956Z,98658.05
2023-05-24T01:02:26.927Z,98657.60
2023-05-24T01:05:20.233Z,98661.02
2023-05-24T01:08:24.248Z,98653.63
2023-05-24T01:11:26.605Z,98653.95
2023-05-24T01:14:25.240Z,98655.49
2023-05-24T01:17:26.645Z,98652.90
2023-05-24T01:20:13.604Z,98651.73
2023-05-24T01:23:32.129Z,98650.40
2023-05-24T01:26:39.743Z,98649.02
2023-05-24T01:29:33.917Z,98648.13
2023-05-24T01:32:20.848Z,98644.32
2023-05-24T01:35:14.020Z,98645.61
2023-05-24T01:37:59.552Z,98642.00
2023-05-24T01:40:59.266Z,98645.30
2023-05-24T01:44:03.085Z,98641.89
2023-05-24T01:46:55.149Z,98645.23
2023-05-24T01:49:55.324Z,98646.96
2023-05-24T01:52:45.522Z,98645.70
2023-05-24T01:55:38.961Z,98645.58
2023-05-24T01:58:33.936Z,98648.61
2023-05-24T02:01:27.874Z,98650.94
2023-05-24T02:04:20.866Z,98653.98
2023-05-24T02:07:03.614Z,98654.54
2023-05-24T02:09:57.096Z,98658.09
2023-05-24T02:12:50.135Z,98657.75
2023-05-24T02:15:43.372Z,98659.15
2023-05-24T02:18:36.569Z,98658.80
2023-05-24T02:21:32.727Z,98661.31
2023-05-24T02:24:06.993Z,98659.73
2023-05-24T02:26:59.114Z,98659.93
2023-05-24T02:29:45.361Z,98659.77
2023-05-24T02:32:38.347Z,98661.05
2023-05-24T02:35:33.454Z,98663.03
2023-05-24T02:38:18.989Z,98664.14
2023-05-24T02:41:17.886Z,98662.61
2023-05-24T02:44:10.600Z,98665.02
2023-05-24T02:47:03.455Z,98669.67
2023-05-24T02:49:58.433Z,98670.95
2023-05-24T02:52:51.793Z,98670.98
2023-05-24T02:55:46.943Z,98673.64
2023-05-24T02:58:40.590Z,98676.33
2023-05-24T03:01:34.724Z,98681.11
2023-05-24T03:04:27.426Z,98678.66
2023-05-24T03:07:20.670Z,98682.74
2023-05-24T03:10:15.971Z,98682.92
2023-05-24T03:13:08.766Z,98683.61
2023-05-24T03:16:00.003Z,98686.27
2023-05-24T03:18:55.406Z,98683.44
2023-05-24T03:21:48.391Z,98688.55
2023-05-24T03:24:34.431Z,98688.56
2023-05-24T03:27:26.998Z,98689.95
2023-05-24T03:30:15.272Z,98689.92
2023-05-24T03:33:08.128Z,98689.85
2023-05-24T03:36:02.964Z,98694.94
2023-05-24T03:38:48.614Z,98693.52
2023-05-24T03:41:34.936Z,98696.51
2023-05-24T03:44:29.758Z,98697.81
2023-05-24T03:47:22.868Z,98700.73
2023-05-24T03:50:15.666Z,98700.46
2023-05-24T03:53:08.428Z,98698.71
2023-05-24T03:56:01.201Z,98703.52
2023-05-24T03:58:54.711Z,98708.02
2023-05-24T04:01:47.832Z,98714.43
2023-05-24T04:04:41.926Z,98716.77
2023-05-24T04:07:26.112Z,98719.51
2023-05-24T04:10:19.023Z,98720.99
2023-05-24T04:13:11.775Z,98723.05
2023-05-24T04:15:58.296Z,98723.33
2023-05-24T04:18:51.605Z,98722.27
2023-05-24T04:21:46.749Z,98725.09
2023-05-24T04:24:39.511Z,98728.91
2023-05-24T04:27:33.950Z,98733.43
2023-05-24T04:30:29.785Z,98736.91
2023-05-24T04:33:22.731Z,98741.25
2023-05-24T04:36:16.282Z,98741.19
2023-05-24T04:39:09.227Z,98747.20
2023-05-24T04:42:02.179Z,98745.33
2023-05-24T04:44:37.655Z,98748.47
2023-05-24T04:47:31.661Z,98750.53
2023-05-24T04:50:24.240Z,98750.58
2023-05-24T04:53:16.973Z,98756.95
2023-05-24T04:56:09.789Z,98760.06
2023-05-24T04:58:52.968Z,98758.25
2023-05-24T05:01:35.996Z,98762.39
2023-05-24T05:04:30.216Z,98766.65
2023-05-24T05:07:23.204Z,98766.02
2023-05-24T05:10:18.772Z,98770.45
2023-05-24T05:13:11.791Z,98776.23
2023-05-24T05:16:05.574Z,98780.28
2023-05-24T05:18:50.996Z,98785.16
2023-05-24T05:21:46.154Z,98787.36
2023-05-24T05:24:38.775Z,98792.14
2023-05-24T05:27:24.266Z,98793.13
2023-05-24T05:30:17.580Z,98796.31
2023-05-24T05:33:06.346Z,98801.09
2023-05-24T05:35:59.497Z,98800.73
2023-05-24T05:38:43.123Z,98802.87
2023-05-24T05:41:36.209Z,98808.33
2023-05-24T05:44:29.064Z,98810.61
2023-05-24T05:47:21.810Z,98813.54
2023-05-24T05:49:57.977Z,98821.30
2023-05-24T05:52:50.617Z,98821.60
2023-05-24T05:55:43.551Z,98822.77
2023-05-24T05:58:39.086Z,98829.84
2023-05-24T06:01:31.960Z,98832.55
2023-05-24T06:04:26.063Z,98836.02
2023-05-24T06:07:11.328Z,98841.02
2023-05-24T06:09:57.114Z,98848.98
2023-05-24T06:12:49.888Z,98850.95
2023-05-24T06:15:42.666Z,98852.21
2023-05-24T06:18:36.816Z,98860.54
2023-05-24T06:21:31.651Z,98865.55
2023-05-24T06:24:24.854Z,98870.34
2023-05-24T06:27:18.974Z,98871.00
2023-05-24T06:30:13.612Z,98871.29
2023-05-24T06:33:06.752Z,98877.79
2023-05-24T06:35:59.842Z,98878.73
2023-05-24T06:38:52.481Z,98879.14
2023-05-24T06:41:39.154Z,98881.51
2023-05-24T06:44:34.877Z,98882.27
2023-05-24T06:47:19.179Z,98886.04
2023-05-24T06:50:12.788Z,98885.63
2023-05-24T06:52:55.804Z,98890.01
2023-05-24T06:55:31.344Z,98894.00
2023-05-24T06:58:24.336Z,98895.52
2023-05-24T07:00:57.150Z,98899.16
2023-05-24T07:03:32.600Z,98899.74
2023-05-24T07:06:14.273Z,98900.54
2023-05-24T07:08:48.950Z,98903.81
2023-05-24T07:11:22.064Z,98902.03
2023-05-24T07:14:03.938Z,98908.84
2023-05-24T07:16:36.762Z,98907.48
2023-05-24T07:19:21.533Z,98907.86
2023-05-24T07:21:54.369Z,98911.41
2023-05-24T07:24:30.895Z,98915.59
2023-05-24T07:27:17.580Z,98916.21
2023-05-24T07:29:55.014Z,98922.10
2023-05-24T07:32:34.448Z,98922.86
2023-05-24T07:35:20.348Z,98929.30
2023-05-24T07:38:12.669Z,98933.10
2023-05-24T07:40:57.354Z,98934.98
2023-05-24T07:43:43.227Z,98938.95
2023-05-24T07:46:15.640Z,98939.33
2023-05-24T07:48:53.386Z,98942.65
2023-05-24T07:51:28.646Z,98945.61
2023-05-24T07:54:04.562Z,98951.03
2023-05-24T07:56:41.894Z,98960.30
2023-05-24T07:59:26.324Z,98964.45
2023-05-24T08:02:05.638Z,98968.94
2023-05-24T08:04:59.023Z,98964.74
2023-05-24T08:07:51.863Z,98966.15
2023-05-24T08:10:45.252Z,98967.28
2023-05-24T08:13:38.659Z,98976.02
2023-05-24T08:16:22.812Z,98975.70
2023-05-24T08:19:09.252Z,98973.48
2023-05-24T08:21:45.110Z,98973.21
2023-05-24T08:24:21.487Z,98979.16
2023-05-24T08:27:04.492Z,98978.56
2023-05-24T08:29:48.969Z,98982.97
2023-05-24T08:32:24.197Z,98983.22
2023-05-24T08:35:14.795Z,98983.61
2023-05-24T08:37:54.821Z,98992.30
2023-05-24T08:40:40.671Z,98991.95
2023-05-24T08:43:29.139Z,98992.58
2023-05-24T08:46:23.486Z,98997.48
2023-05-24T08:49:01.717Z,98995.03
2023-05-24T08:51:55.960Z,98995.95
2023-05-24T08:54:52.235Z,99000.87
2023-05-24T08:57:32.745Z,99000.64
2023-05-24T09:00:26.486Z,99003.49
2023-05-24T09:03:20.623Z,99002.70
2023-05-24T09:06:17.828Z,98999.09
2023-05-24T09:09:11.448Z,99002.94
2023-05-24T09:11:53.466Z,99002.17
2023-05-24T09:14:31.025Z,99005.75
2023-05-24T09:17:07.010Z,99005.08
2023-05-24T09:19:41.228Z,99008.48
2023-05-24T09:22:20.359Z,99007.67
2023-05-24T09:24:53.876Z,99012.10
2023-05-24T09:27:39.310Z,99019.48
2023-05-24T09:30:26.615Z,99015.96
2023-05-24T09:33:20.981Z,99015.84
2023-05-24T09:36:00.777Z,99013.55
2023-05-24T09:38:36.905Z,99008.91
2023-05-24T09:41:12.852Z,99008.54
2023-05-24T09:43:54.245Z,99008.14
2023-05-24T09:46:29.369Z,99002.83
2023-05-24T09:49:23.915Z,99009.11
2023-05-24T09:51:59.801Z,99006.20
2023-05-24T09:54:52.650Z,99013.11
2023-05-24T09:57:28.933Z,99013.50
2023-05-24T10:00:17.708Z,99015.23
2023-05-24T10:03:12.971Z,99017.17
2023-05-24T10:06:07.763Z,99024.45
2023-05-24T10:08:57.186Z,99024.22
2023-05-24T10:11:50.206Z,99022.29
2023-05-24T10:14:23.529Z,99027.54
2023-05-24T10:17:08.231Z,99027.86
2023-05-24T10:19:42.068Z,99032.13
2023-05-24T10:22:28.032Z,99032.00
2023-05-24T10:25:06.670Z,99037.45
2023-05-24T10:27:40.443Z,99041.22
2023-05-24T10:30:19.380Z,99043.01
2023-05-24T10:32:56.402Z,99041.16
2023-05-24T10:35:31.022Z,99043.83
2023-05-24T10:38:08.905Z,99043.23
2023-05-24T10:40:45.952Z,99046.11
2023-05-24T10:43:28.974Z,99045.97
2023-05-24T10:46:03.871Z,99058.69
2023-05-24T10:49:06.673Z,99059.30
2023-05-24T10:52:01.701Z,99054.50
2023-05-24T10:55:05.640Z,99055.52
2023-05-24T10:57:42.698Z,99059.66
2023-05-24T11:00:42.389Z,99058.37
2023-05-24T11:03:23.916Z,99060.86
2023-05-24T11:06:01.427Z,99065.66
2023-05-24T11:08:43.684Z,99062.86
2023-05-24T11:14:13.959Z,99059.59
2023-05-24T11:19:32.124Z,99054.21
2023-05-24T11:22:06.207Z,99053.21
2023-05-24T11:24:43.812Z,99053.34
2023-05-24T11:27:35.652Z,99051.20
2023-05-24T11:30:14.210Z,99050.21
2023-05-24T11:33:07.289Z,99049.30
2023-05-24T11:35:50.739Z,99047.20
2023-05-24T11:38:44.941Z,99048.97
2023-05-24T11:41:28.691Z,99051.30
2023-05-24T11:44:21.915Z,99050.48
2023-05-24T11:47:16.165Z,99047.90
2023-05-24T11:49:52.953Z,99044.38
2023-05-24T11:52:43.357Z,99047.94
2023-05-24T11:55:30.433Z,99050.48
2023-05-24T11:58:07.578Z,99044.81
2023-05-24T12:00:41.132Z,99047.39
2023-05-24T12:03:25.300Z,99046.05
2023-05-24T12:06:00.025Z,99044.09
2023-05-24T12:08:34.008Z,99044.38
2023-05-24T12:11:09.957Z,99039.33
2023-05-24T12:13:45.690Z,99040.23
2023-05-24T12:16:22.189Z,99038.06
2023-05-24T12:19:32.479Z,99038.63
2023-05-24T12:22:32.035Z,99039.27
2023-05-24T12:25:27.464Z,99040.05
2023-05-24T12:28:24.795Z,99035.13
2023-05-24T12:31:01.239Z,99037.45
2023-05-24T12:33:54.314Z,99031.73
2023-05-24T12:36:36.935Z,99034.91
2023-05-24T12:39:23.222Z,99035.61
2023-05-24T12:42:09.961Z,99039.79
2023-05-24T12:44:52.534Z,99039.11
2023-05-24T12:47:40.996Z,99036.45
2023-05-24T12:50:26.804Z,99036.72
2023-05-24T12:53:13.128Z,99032.84
2023-05-24T12:56:00.719Z,99032.92
2023-05-24T12:58:37.505Z,99031.27
2023-05-24T13:01:13.354Z,99034.04
2023-05-24T13:03:46.364Z,99032.59
2023-05-24T13:06:19.096Z,99030.79
2023-05-24T13:08:53.692Z,99031.95
2023-05-24T13:11:31.353Z,99031.81
2023-05-24T13:14:11.582Z,99026.98
2023-05-24T13:16:58.705Z,99027.85
2023-05-24T13:19:40.305Z,99029.27
2023-05-24T13:22:12.980Z,99031.71
2023-05-24T13:25:08.332Z,99031.21
2023-05-24T13:28:00.144Z,99030.94
2023-05-24T13:30:53.073Z,99038.04
2023-05-24T13:33:26.502Z,99036.25
2023-05-24T13:36:10.109Z,99035.15
2023-05-24T13:39:14.321Z,99038.51
2023-05-24T13:42:09.158Z,99045.37
2023-05-24T13:45:01.701Z,99047.53
2023-05-24T13:47:48.564Z,99044.27
2023-05-24T13:50:40.475Z,99051.31
2023-05-24T13:53:33.359Z,99052.83
2023-05-24T13:56:26.097Z,99052.55
2023-05-24T13:59:19.770Z,99051.70
2023-05-24T14:02:12.323Z,99052.69
2023-05-24T14:05:13.596Z,99056.17
2023-05-24T14:08:11.616Z,99052.63
2023-05-24T14:11:04.936Z,99050.89
2023-05-24T14:16:55.234Z,99050.36
2023-05-24T14:19:35.674Z,99049.32
2023-05-24T14:22:29.781Z,99044.89
2023-05-24T14:25:22.648Z,99032.88
2023-05-24T14:28:08.788Z,99031.89
2023-05-24T14:30:52.577Z,99033.23
2023-05-24T14:33:48.053Z,99033.09
2023-05-24T14:36:41.723Z,99034.11
2023-05-24T14:39:34.775Z,99034.48
2023-05-24T14:42:11.050Z,99036.59
2023-05-24T14:44:43.598Z,99037.16
2023-05-24T14:47:38.032Z,99042.55
2023-05-24T14:50:22.851Z,99040.70
2023-05-24T14:53:15.881Z,99042.02
2023-05-24T14:55:59.113Z,99043.71
2023-05-24T14:58:34.669Z,99049.23
2023-05-24T15:01:28.046Z,99053.52
2023-05-24T15:04:11.532Z,99060.92
2023-05-24T15:07:04.698Z,99062.52
2023-05-24T15:09:57.690Z,99066.55
2023-05-24T15:12:30.999Z,99069.00
2023-05-24T15:15:16.566Z,99078.33
2023-05-24T15:17:55.230Z,99084.30
2023-05-24T15:20:44.162Z,99085.16
2023-05-24T15:23:21.295Z,99085.05
2023-05-24T15:26:08.435Z,99084.16
2023-05-24T15:28:58.325Z,99084.73
2023-05-24T15:31:37.011Z,99087.48
2023-05-24T15:34:21.520Z,99088.45
2023-05-24T15:36:56.575Z,99102.73
2023-05-24T15:39:29.278Z,99106.54
2023-05-24T15:42:05.107Z,99104.30
2023-05-24T15:44:39.796Z,99104.31
2023-05-24T15:47:16.075Z,99104.86
2023-05-24T15:49:58.089Z,99101.84
2023-05-24T15:52:31.139Z,99097.84
2023-05-24T15:55:05.336Z,99097.05
2023-05-24T15:57:38.495Z,99100.44
2023-05-24T16:00:18.315Z,99106.54
2023-05-24T16:02:56.011Z,99104.40
2023-05-24T16:05:38.205Z,99109.94
2023-05-24T16:08:16.196Z,99113.50
2023-05-24T16:10:49.334Z,99113.33
2023-05-24T16:13:29.838Z,99122.11
2023-05-24T16:16:13.812Z,99126.80
2023-05-24T16:18:51.843Z,99137.39
2023-05-24T16:21:24.577Z,99141.05
2023-05-24T16:23:58.742Z,99148.95
2023-05-24T16:26:32.797Z,99143.69
2023-05-24T16:29:07.161Z,99142.59
2023-05-24T16:31:40.633Z,99139.33
2023-05-24T16:34:17.436Z,99141.71
2023-05-24T16:36:50.349Z,99140.83
2023-05-24T16:39:43.034Z,99143.41
2023-05-24T16:42:17.699Z,99146.56
2023-05-24T16:45:12.114Z,99150.13
2023-05-24T16:48:05.288Z,99149.14
2023-05-24T16:50:58.691Z,99151.48
2023-05-24T16:53:51.792Z,99150.80
2023-05-24T16:56:27.680Z,99150.64
2023-05-24T16:59:20.713Z,99154.96
2023-05-24T17:02:13.813Z,99158.23
2023-05-24T17:05:08.195Z,99161.94
2023-05-24T17:08:01.479Z,99175.34
2023-05-24T17:10:57.219Z,99188.05
2023-05-24T17:13:51.594Z,99193.52
2023-05-24T17:16:37.936Z,99199.89
2023-05-24T17:19:31.917Z,99206.96
2023-05-24T17:22:25.170Z,99218.82
2023-05-24T17:25:05.481Z,99221.42
2023-05-24T17:27:58.076Z,99230.68
2023-05-24T17:30:51.234Z,99237.33
2023-05-24T17:33:45.171Z,99249.95
2023-05-24T17:36:38.719Z,99261.79
2023-05-24T17:39:24.553Z,99267.88
2023-05-24T17:42:18.384Z,99265.30
2023-05-24T17:45:06.688Z,99270.28
2023-05-24T17:47:59.908Z,99273.15
2023-05-24T17:50:45.912Z,99280.39
2023-05-24T17:53:34.830Z,99280.14
2023-05-24T17:56:29.434Z,99281.63
2023-05-24T17:59:07.392Z,99277.22
2023-05-24T18:02:01.220Z,99276.19
2023-05-24T18:04:55.458Z,99269.56
2023-05-24T18:07:48.452Z,99256.60
2023-05-24T18:10:29.085Z,99245.39
2023-05-24T18:13:22.435Z,99241.66
2023-05-24T18:16:16.093Z,99239.27
2023-05-24T18:18:54.506Z,99240.56
2023-05-24T18:21:49.097Z,99252.30
2023-05-24T18:24:42.019Z,99257.62
2023-05-24T18:27:35.509Z,99258.01
2023-05-24T18:30:28.458Z,99264.80
2023-05-24T18:33:12.983Z,99271.63
2023-05-24T18:35:57.836Z,99271.76
2023-05-24T18:38:51.178Z,99278.70
2023-05-24T18:41:36.837Z,99279.23
2023-05-24T18:44:30.893Z,99283.86
2023-05-24T18:47:14.054Z,99288.15
2023-05-24T18:50:08.754Z,99289.54
2023-05-24T18:52:53.930Z,99293.81
2023-05-24T18:55:51.096Z,99294.41
2023-05-24T18:58:46.358Z,99299.02
2023-05-24T19:01:25.669Z,99301.43
2023-05-24T19:04:21.931Z,99296.15
2023-05-24T19:07:15.457Z,99299.17
2023-05-24T19:10:05.622Z,99300.58
2023-05-24T19:12:41.456Z,99306.55
2023-05-24T19:15:35.846Z,99310.73
2023-05-24T19:18:20.761Z,99313.16
2023-05-24T19:20:57.424Z,99317.91
2023-05-24T19:23:42.379Z,99318.40
2023-05-24T19:26:27.345Z,99322.41
2023-05-24T19:29:08.191Z,99322.52
2023-05-24T19:31:43.609Z,99320.18
2023-05-24T19:34:19.398Z,99323.11
2023-05-24T19:36:59.643Z,99332.00
2023-05-24T19:39:35.777Z,99340.39
2023-05-24T19:42:13.068Z,99345.42
2023-05-24T19:44:57.107Z,99351.14
2023-05-24T19:47:32.267Z,99356.48
2023-05-24T19:50:17.566Z,99357.62
2023-05-24T19:53:10.411Z,99358.80
2023-05-24T19:56:05.012Z,99356.05
2023-05-24T19:58:58.046Z,99353.52
2023-05-24T20:01:50.399Z,99352.21
2023-05-24T20:04:44.133Z,99353.55
2023-05-24T20:07:35.888Z,99365.27
2023-05-24T20:10:33.008Z,99373.83
2023-05-24T20:13:25.753Z,99367.52
2023-05-24T20:16:20.666Z,99366.20
2023-05-24T20:19:13.714Z,99366.13
2023-05-24T20:22:02.471Z,99370.04
2023-05-24T20:24:47.646Z,99369.06
2023-05-24T20:27:34.380Z,99375.48
2023-05-24T20:30:26.546Z,99378.38
2023-05-24T20:33:11.884Z,99375.98
2023-05-24T20:35:55.713Z,99373.94
2023-05-24T20:38:49.220Z,99374.73
2023-05-24T20:41:38.376Z,99375.48
2023-05-24T20:44:32.693Z,99376.25
2023-05-24T20:47:24.561Z,99381.09
2023-05-24T20:50:18.425Z,99384.46
2023-05-24T20:53:12.228Z,99383.98
2023-05-24T20:56:05.770Z,99384.69
2023-05-24T20:59:00.234Z,99390.02
2023-05-24T21:01:54.085Z,99393.79
2023-05-24T21:04:46.906Z,99397.19
2023-05-24T21:07:38.618Z,99401.30
2023-05-24T21:10:32.572Z,99405.59
2023-05-24T21:13:25.702Z,99398.28
2023-05-24T21:16:18.363Z,99403.30
2023-05-24T21:19:11.298Z,99402.81
2023-05-24T21:22:04.225Z,99403.92
2023-05-24T21:24:58.224Z,99402.41
2023-05-24T21:27:39.813Z,99405.98
2023-05-24T21:30:32.726Z,99412.04
2023-05-24T21:33:21.773Z,99416.16
2023-05-24T21:36:14.248Z,99415.16
2023-05-24T21:38:57.823Z,99413.41
2023-05-24T21:41:43.132Z,99420.34
2023-05-24T21:44:35.857Z,99422.19
2023-05-24T21:47:28.616Z,99424.34
2023-05-24T21:50:22.257Z,99426.12
2023-05-24T21:53:14.928Z,99428.78
2023-05-24T21:56:09.693Z,99426.72
2023-05-24T21:59:02.677Z,99425.19
2023-05-24T22:01:55.321Z,99428.73
2023-05-24T22:04:46.570Z,99428.80
2023-05-24T22:07:29.349Z,99427.23
2023-05-24T22:10:22.256Z,99428.52
2023-05-24T22:13:16.550Z,99429.59
2023-05-24T22:16:10.214Z,99431.20
2023-05-24T22:19:01.051Z,99426.98
2023-05-24T22:21:53.462Z,99430.55
2023-05-24T22:24:48.309Z,99434.46
2023-05-24T22:27:40.894Z,99435.76
2023-05-24T22:30:18.603Z,99435.60
2023-05-24T22:33:14.065Z,99433.53
2023-05-24T22:36:07.197Z,99436.92
2023-05-24T22:39:00.152Z,99438.73
2023-05-24T22:41:52.423Z,99450.02
2023-05-24T22:44:46.453Z,99447.59
2023-05-24T22:47:33.455Z,99447.47
2023-05-24T22:50:26.106Z,99447.34
2023-05-24T22:53:18.908Z,99451.77
2023-05-24T22:56:11.636Z,99447.24
2023-05-24T22:59:04.696Z,99448.17
2023-05-24T23:01:57.679Z,99455.07
2023-05-24T23:04:50.610Z,99455.65
2023-05-24T23:07:43.620Z,99455.17
2023-05-24T23:10:28.630Z,99450.80
2023-05-24T23:13:22.200Z,99448.56
2023-05-24T23:16:18.071Z,99446.16
2023-05-24T23:19:05.568Z,99443.73
2023-05-24T23:21:58.662Z,99452.90
2023-05-24T23:24:51.387Z,99452.58
2023-05-24T23:27:34.913Z,99458.77
2023-05-24T23:30:19.437Z,99467.07
2023-05-24T23:33:12.616Z,99467.06
2023-05-24T23:36:06.810Z,99471.83
2023-05-24T23:38:58.934Z,99470.45
2023-05-24T23:41:51.723Z,99471.53
2023-05-24T23:44:37.301Z,99472.95
2023-05-24T23:47:30.253Z,99472.64
2023-05-24T23:50:22.794Z,99468.94
2023-05-24T23:52:58.396Z,99469.48
2023-05-24T23:55:51.079Z,99469.66
2023-05-24T23:58:44.073Z,99466.70
